sensor_id;sensor_type;location;lat;lon;timestamp;P1;durP1;ratioP1;P2;durP2;ratioP2
1625;SDS011;806;48.770;9.156;2022-08-19T00:00:38;4.50;;;3.07;;
1625;SDS011;806;48.770;9.156;2022-08-19T00:03:05;5.43;;;3.07;;
1625;SDS011;806;48.770;9.156;2022-08-19T00:05:33;5.40;;;3.90;;
1625;SDS011;806;48.770;9.156;2022-08-19T00:08:00;4.53;;;4.13;;
1625;SDS011;806;48.770;9.156;2022-08-19T00:10:29;3.57;;;2.83;;
1625;SDS011;806;48.770;9.156;2022-08-19T00:12:55;3.50;;;3.20;;
1625;SDS011;806;48.770;9.156;2022-08-19T00:15:22;4.43;;;3.97;;
1625;SDS011;806;48.770;9.156;2022-08-19T00:17:49;4.70;;;4.30;;
1625;SDS011;806;48.770;9.156;2022-08-19T00:20:18;5.13;;;3.83;;
1625;SDS011;806;48.770;9.156;2022-08-19T00:22:46;4.80;;;2.80;;
1625;SDS011;806;48.770;9.156;2022-08-19T00:25:13;3.40;;;2.80;;
1625;SDS011;806;48.770;9.156;2022-08-19T00:27:43;5.87;;;3.40;;
1625;SDS011;806;48.770;9.156;2022-08-19T00:30:10;3.93;;;3.57;;
1625;SDS011;806;48.770;9.156;2022-08-19T00:32:38;4.07;;;3.67;;
1625;SDS011;806;48.770;9.156;2022-08-19T00:35:06;3.70;;;3.17;;
1625;SDS011;806;48.770;9.156;2022-08-19T00:37:34;6.13;;;3.60;;
1625;SDS011;806;48.770;9.156;2022-08-19T00:40:02;4.30;;;3.50;;
1625;SDS011;806;48.770;9.156;2022-08-19T00:42:31;3.87;;;2.57;;
1625;SDS011;806;48.770;9.156;2022-08-19T00:44:59;4.43;;;4.00;;
1625;SDS011;806;48.770;9.156;2022-08-19T00:47:26;6.33;;;4.53;;
1625;SDS011;806;48.770;9.156;2022-08-19T00:49:54;3.43;;;3.13;;
1625;SDS011;806;48.770;9.156;2022-08-19T00:52:23;5.27;;;3.87;;
1625;SDS011;806;48.770;9.156;2022-08-19T00:54:55;5.53;;;4.27;;
1625;SDS011;806;48.770;9.156;2022-08-19T00:57:24;4.47;;;2.83;;
1625;SDS011;806;48.770;9.156;2022-08-19T00:59:55;4.70;;;3.03;;
1625;SDS011;806;48.770;9.156;2022-08-19T01:02:25;4.60;;;3.40;;
1625;SDS011;806;48.770;9.156;2022-08-19T01:04:53;4.30;;;3.90;;
1625;SDS011;806;48.770;9.156;2022-08-19T01:07:21;4.33;;;3.60;;
1625;SDS011;806;48.770;9.156;2022-08-19T01:09:48;3.90;;;3.50;;
1625;SDS011;806;48.770;9.156;2022-08-19T01:12:15;3.20;;;3.00;;
1625;SDS011;806;48.770;9.156;2022-08-19T01:14:43;7.27;;;4.40;;
1625;SDS011;806;48.770;9.156;2022-08-19T01:17:10;5.20;;;4.10;;
1625;SDS011;806;48.770;9.156;2022-08-19T01:19:40;3.43;;;2.90;;
1625;SDS011;806;48.770;9.156;2022-08-19T01:22:10;5.57;;;3.90;;
1625;SDS011;806;48.770;9.156;2022-08-19T01:24:42;4.43;;;3.10;;
1625;SDS011;806;48.770;9.156;2022-08-19T01:27:09;3.47;;;3.17;;
1625;SDS011;806;48.770;9.156;2022-08-19T01:29:37;5.33;;;3.73;;
1625;SDS011;806;48.770;9.156;2022-08-19T01:32:05;4.47;;;3.00;;
1625;SDS011;806;48.770;9.156;2022-08-19T01:34:33;4.20;;;2.30;;
1625;SDS011;806;48.770;9.156;2022-08-19T01:37:05;6.70;;;4.13;;
1625;SDS011;806;48.770;9.156;2022-08-19T01:39:36;4.67;;;3.40;;
1625;SDS011;806;48.770;9.156;2022-08-19T01:42:05;4.70;;;3.07;;
1625;SDS011;806;48.770;9.156;2022-08-19T01:44:36;5.07;;;4.50;;
1625;SDS011;806;48.770;9.156;2022-08-19T01:47:05;3.57;;;2.67;;
1625;SDS011;806;48.770;9.156;2022-08-19T01:49:35;6.27;;;3.63;;
1625;SDS011;806;48.770;9.156;2022-08-19T01:52:03;5.03;;;3.77;;
1625;SDS011;806;48.770;9.156;2022-08-19T01:54:31;5.40;;;4.90;;
1625;SDS011;806;48.770;9.156;2022-08-19T01:56:59;3.90;;;3.57;;
1625;SDS011;806;48.770;9.156;2022-08-19T01:59:30;4.33;;;3.93;;
1625;SDS011;806;48.770;9.156;2022-08-19T02:02:01;6.10;;;5.50;;
1625;SDS011;806;48.770;9.156;2022-08-19T02:04:32;5.80;;;4.23;;
1625;SDS011;806;48.770;9.156;2022-08-19T02:07:00;4.93;;;3.20;;
1625;SDS011;806;48.770;9.156;2022-08-19T02:09:27;6.60;;;5.43;;
1625;SDS011;806;48.770;9.156;2022-08-19T02:11:54;4.73;;;4.30;;
1625;SDS011;806;48.770;9.156;2022-08-19T02:14:21;7.00;;;4.53;;
1625;SDS011;806;48.770;9.156;2022-08-19T02:16:49;5.40;;;4.07;;
1625;SDS011;806;48.770;9.156;2022-08-19T02:19:16;4.83;;;4.27;;
1625;SDS011;806;48.770;9.156;2022-08-19T02:21:43;5.27;;;4.13;;
1625;SDS011;806;48.770;9.156;2022-08-19T02:24:10;6.37;;;5.77;;
1625;SDS011;806;48.770;9.156;2022-08-19T02:26:37;12.63;;;4.70;;
1625;SDS011;806;48.770;9.156;2022-08-19T02:29:05;5.30;;;4.73;;
1625;SDS011;806;48.770;9.156;2022-08-19T02:31:32;5.20;;;4.70;;
1625;SDS011;806;48.770;9.156;2022-08-19T02:34:00;7.23;;;5.00;;
1625;SDS011;806;48.770;9.156;2022-08-19T02:36:27;5.93;;;4.43;;
1625;SDS011;806;48.770;9.156;2022-08-19T02:38:55;7.40;;;5.90;;
1625;SDS011;806;48.770;9.156;2022-08-19T02:41:22;6.60;;;4.40;;
1625;SDS011;806;48.770;9.156;2022-08-19T02:43:51;5.43;;;4.60;;
1625;SDS011;806;48.770;9.156;2022-08-19T02:46:18;7.37;;;6.57;;
1625;SDS011;806;48.770;9.156;2022-08-19T02:48:47;9.37;;;6.07;;
1625;SDS011;806;48.770;9.156;2022-08-19T02:51:20;9.07;;;5.50;;
1625;SDS011;806;48.770;9.156;2022-08-19T02:53:48;9.27;;;5.70;;
1625;SDS011;806;48.770;9.156;2022-08-19T02:56:16;7.40;;;4.87;;
1625;SDS011;806;48.770;9.156;2022-08-19T02:58:43;7.53;;;5.93;;
1625;SDS011;806;48.770;9.156;2022-08-19T03:01:10;7.70;;;5.70;;
1625;SDS011;806;48.770;9.156;2022-08-19T03:03:45;8.80;;;6.20;;
1625;SDS011;806;48.770;9.156;2022-08-19T03:06:13;7.23;;;5.40;;
1625;SDS011;806;48.770;9.156;2022-08-19T03:08:43;8.67;;;5.83;;
1625;SDS011;806;48.770;9.156;2022-08-19T03:11:15;7.83;;;6.10;;
1625;SDS011;806;48.770;9.156;2022-08-19T03:13:44;11.73;;;6.93;;
1625;SDS011;806;48.770;9.156;2022-08-19T03:16:11;9.73;;;7.43;;
1625;SDS011;806;48.770;9.156;2022-08-19T03:18:38;6.90;;;6.00;;
1625;SDS011;806;48.770;9.156;2022-08-19T03:21:05;8.27;;;6.17;;
1625;SDS011;806;48.770;9.156;2022-08-19T03:23:32;7.30;;;5.30;;
1625;SDS011;806;48.770;9.156;2022-08-19T03:26:02;7.87;;;6.47;;
1625;SDS011;806;48.770;9.156;2022-08-19T03:28:31;9.27;;;7.60;;
1625;SDS011;806;48.770;9.156;2022-08-19T03:31:01;6.37;;;5.00;;
1625;SDS011;806;48.770;9.156;2022-08-19T03:33:30;8.97;;;6.77;;
1625;SDS011;806;48.770;9.156;2022-08-19T03:36:03;7.50;;;6.30;;
1625;SDS011;806;48.770;9.156;2022-08-19T03:38:32;10.47;;;8.20;;
1625;SDS011;806;48.770;9.156;2022-08-19T03:41:03;8.50;;;6.30;;
1625;SDS011;806;48.770;9.156;2022-08-19T03:43:31;9.90;;;7.40;;
1625;SDS011;806;48.770;9.156;2022-08-19T03:46:00;10.13;;;7.97;;
1625;SDS011;806;48.770;9.156;2022-08-19T03:48:29;8.90;;;6.87;;
1625;SDS011;806;48.770;9.156;2022-08-19T03:50:56;8.10;;;7.30;;
1625;SDS011;806;48.770;9.156;2022-08-19T03:53:25;8.10;;;7.30;;
1625;SDS011;806;48.770;9.156;2022-08-19T03:55:53;8.40;;;6.90;;
1625;SDS011;806;48.770;9.156;2022-08-19T03:58:22;11.30;;;8.43;;
1625;SDS011;806;48.770;9.156;2022-08-19T04:00:49;9.10;;;6.83;;
1625;SDS011;806;48.770;9.156;2022-08-19T04:03:16;8.40;;;7.20;;
1625;SDS011;806;48.770;9.156;2022-08-19T04:05:45;9.37;;;6.57;;
1625;SDS011;806;48.770;9.156;2022-08-19T04:08:12;7.97;;;7.17;;
1625;SDS011;806;48.770;9.156;2022-08-19T04:10:43;8.90;;;7.83;;
1625;SDS011;806;48.770;9.156;2022-08-19T04:13:13;8.50;;;7.40;;
1625;SDS011;806;48.770;9.156;2022-08-19T04:15:41;11.20;;;8.13;;
1625;SDS011;806;48.770;9.156;2022-08-19T04:18:11;10.47;;;8.20;;
1625;SDS011;806;48.770;9.156;2022-08-19T04:20:42;9.53;;;7.77;;
1625;SDS011;806;48.770;9.156;2022-08-19T04:23:11;7.30;;;6.60;;
1625;SDS011;806;48.770;9.156;2022-08-19T04:25:39;8.60;;;7.37;;
1625;SDS011;806;48.770;9.156;2022-08-19T04:28:09;11.10;;;8.50;;
1625;SDS011;806;48.770;9.156;2022-08-19T04:30:38;10.33;;;8.77;;
1625;SDS011;806;48.770;9.156;2022-08-19T04:33:08;12.10;;;8.93;;
1625;SDS011;806;48.770;9.156;2022-08-19T04:35:37;9.90;;;8.23;;
1625;SDS011;806;48.770;9.156;2022-08-19T04:38:05;11.90;;;8.30;;
1625;SDS011;806;48.770;9.156;2022-08-19T04:40:33;8.83;;;7.93;;
1625;SDS011;806;48.770;9.156;2022-08-19T04:43:20;7.93;;;7.10;;
1625;SDS011;806;48.770;9.156;2022-08-19T04:45:48;10.93;;;8.07;;
1625;SDS011;806;48.770;9.156;2022-08-19T04:48:16;10.17;;;8.53;;
1625;SDS011;806;48.770;9.156;2022-08-19T04:50:51;8.80;;;8.00;;
1625;SDS011;806;48.770;9.156;2022-08-19T04:53:22;9.00;;;7.30;;
1625;SDS011;806;48.770;9.156;2022-08-19T04:55:50;9.60;;;7.90;;
1625;SDS011;806;48.770;9.156;2022-08-19T04:58:17;11.87;;;9.23;;
1625;SDS011;806;48.770;9.156;2022-08-19T05:00:44;9.50;;;8.47;;
1625;SDS011;806;48.770;9.156;2022-08-19T05:03:13;9.97;;;7.17;;
1625;SDS011;806;48.770;9.156;2022-08-19T05:05:42;11.70;;;9.70;;
1625;SDS011;806;48.770;9.156;2022-08-19T05:08:10;13.27;;;11.50;;
1625;SDS011;806;48.770;9.156;2022-08-19T05:10:37;8.47;;;7.53;;
1625;SDS011;806;48.770;9.156;2022-08-19T05:13:05;9.20;;;7.07;;
1625;SDS011;806;48.770;9.156;2022-08-19T05:15:35;10.23;;;8.40;;
1625;SDS011;806;48.770;9.156;2022-08-19T05:18:02;9.93;;;8.47;;
1625;SDS011;806;48.770;9.156;2022-08-19T05:20:48;11.87;;;9.30;;
1625;SDS011;806;48.770;9.156;2022-08-19T05:23:33;9.20;;;7.83;;
1625;SDS011;806;48.770;9.156;2022-08-19T05:26:00;8.10;;;7.27;;
1625;SDS011;806;48.770;9.156;2022-08-19T05:28:27;8.90;;;7.80;;
1625;SDS011;806;48.770;9.156;2022-08-19T05:30:53;12.30;;;9.70;;
1625;SDS011;806;48.770;9.156;2022-08-19T05:33:21;10.13;;;8.73;;
1625;SDS011;806;48.770;9.156;2022-08-19T05:35:50;8.33;;;7.37;;
1625;SDS011;806;48.770;9.156;2022-08-19T05:38:17;7.97;;;7.07;;
1625;SDS011;806;48.770;9.156;2022-08-19T05:40:45;7.87;;;7.07;;
1625;SDS011;806;48.770;9.156;2022-08-19T05:43:13;9.63;;;8.50;;
1625;SDS011;806;48.770;9.156;2022-08-19T05:45:41;8.13;;;7.30;;
1625;SDS011;806;48.770;9.156;2022-08-19T05:48:10;10.83;;;8.60;;
1625;SDS011;806;48.770;9.156;2022-08-19T05:50:37;10.40;;;8.50;;
1625;SDS011;806;48.770;9.156;2022-08-19T05:53:07;11.27;;;8.50;;
1625;SDS011;806;48.770;9.156;2022-08-19T05:55:34;8.73;;;7.43;;
1625;SDS011;806;48.770;9.156;2022-08-19T05:58:03;8.37;;;7.50;;
1625;SDS011;806;48.770;9.156;2022-08-19T06:00:32;8.20;;;7.40;;
1625;SDS011;806;48.770;9.156;2022-08-19T06:02:59;8.10;;;7.23;;
1625;SDS011;806;48.770;9.156;2022-08-19T06:05:28;14.23;;;9.20;;
1625;SDS011;806;48.770;9.156;2022-08-19T06:07:55;9.10;;;7.40;;
1625;SDS011;806;48.770;9.156;2022-08-19T06:10:25;9.80;;;8.37;;
1625;SDS011;806;48.770;9.156;2022-08-19T06:12:52;13.03;;;10.30;;
1625;SDS011;806;48.770;9.156;2022-08-19T06:15:21;9.37;;;7.83;;
1625;SDS011;806;48.770;9.156;2022-08-19T06:17:50;9.93;;;8.80;;
1625;SDS011;806;48.770;9.156;2022-08-19T06:20:17;11.30;;;9.90;;
1625;SDS011;806;48.770;9.156;2022-08-19T06:22:46;9.23;;;8.20;;
1625;SDS011;806;48.770;9.156;2022-08-19T06:25:15;10.00;;;7.43;;
1625;SDS011;806;48.770;9.156;2022-08-19T06:27:43;10.67;;;7.63;;
1625;SDS011;806;48.770;9.156;2022-08-19T06:30:11;15.20;;;8.37;;
1625;SDS011;806;48.770;9.156;2022-08-19T06:32:39;7.07;;;6.07;;
1625;SDS011;806;48.770;9.156;2022-08-19T06:35:06;8.87;;;7.20;;
1625;SDS011;806;48.770;9.156;2022-08-19T06:37:34;8.80;;;7.17;;
1625;SDS011;806;48.770;9.156;2022-08-19T06:40:02;8.13;;;7.27;;
1625;SDS011;806;48.770;9.156;2022-08-19T06:42:31;10.17;;;7.27;;
1625;SDS011;806;48.770;9.156;2022-08-19T06:44:59;7.83;;;7.03;;
1625;SDS011;806;48.770;9.156;2022-08-19T06:47:28;8.90;;;7.37;;
1625;SDS011;806;48.770;9.156;2022-08-19T06:49:56;8.97;;;7.70;;
1625;SDS011;806;48.770;9.156;2022-08-19T06:52:27;11.30;;;8.97;;
1625;SDS011;806;48.770;9.156;2022-08-19T06:54:53;8.90;;;7.13;;
1625;SDS011;806;48.770;9.156;2022-08-19T06:57:22;8.90;;;7.40;;
1625;SDS011;806;48.770;9.156;2022-08-19T06:59:50;9.60;;;8.43;;
1625;SDS011;806;48.770;9.156;2022-08-19T07:02:19;11.20;;;8.10;;
1625;SDS011;806;48.770;9.156;2022-08-19T07:04:46;8.63;;;7.00;;
1625;SDS011;806;48.770;9.156;2022-08-19T07:07:13;8.27;;;7.47;;
1625;SDS011;806;48.770;9.156;2022-08-19T07:09:41;9.97;;;8.90;;
1625;SDS011;806;48.770;9.156;2022-08-19T07:12:10;8.97;;;7.00;;
1625;SDS011;806;48.770;9.156;2022-08-19T07:14:40;10.70;;;7.00;;
1625;SDS011;806;48.770;9.156;2022-08-19T07:17:10;8.93;;;7.93;;
1625;SDS011;806;48.770;9.156;2022-08-19T07:19:38;12.03;;;9.90;;
1625;SDS011;806;48.770;9.156;2022-08-19T07:22:07;10.03;;;7.70;;
1625;SDS011;806;48.770;9.156;2022-08-19T07:24:35;9.40;;;7.53;;
1625;SDS011;806;48.770;9.156;2022-08-19T07:27:03;7.03;;;6.33;;
1625;SDS011;806;48.770;9.156;2022-08-19T07:29:33;11.10;;;8.50;;
1625;SDS011;806;48.770;9.156;2022-08-19T07:32:01;7.37;;;6.20;;
1625;SDS011;806;48.770;9.156;2022-08-19T07:34:30;8.47;;;6.97;;
1625;SDS011;806;48.770;9.156;2022-08-19T07:37:03;9.80;;;8.63;;
1625;SDS011;806;48.770;9.156;2022-08-19T07:39:32;7.70;;;6.00;;
1625;SDS011;806;48.770;9.156;2022-08-19T07:42:00;7.93;;;7.10;;
1625;SDS011;806;48.770;9.156;2022-08-19T07:44:32;8.53;;;7.47;;
1625;SDS011;806;48.770;9.156;2022-08-19T07:47:00;11.20;;;8.40;;
1625;SDS011;806;48.770;9.156;2022-08-19T07:49:27;10.77;;;6.70;;
1625;SDS011;806;48.770;9.156;2022-08-19T07:51:55;8.67;;;6.80;;
1625;SDS011;806;48.770;9.156;2022-08-19T07:54:29;7.37;;;6.63;;
1625;SDS011;806;48.770;9.156;2022-08-19T07:56:58;8.73;;;6.07;;
1625;SDS011;806;48.770;9.156;2022-08-19T07:59:26;8.13;;;6.93;;
1625;SDS011;806;48.770;9.156;2022-08-19T08:01:54;6.73;;;6.00;;
1625;SDS011;806;48.770;9.156;2022-08-19T08:04:22;10.23;;;7.33;;
1625;SDS011;806;48.770;9.156;2022-08-19T08:07:06;7.93;;;7.10;;
1625;SDS011;806;48.770;9.156;2022-08-19T08:09:53;7.80;;;7.10;;
1625;SDS011;806;48.770;9.156;2022-08-19T08:12:21;7.83;;;5.50;;
1625;SDS011;806;48.770;9.156;2022-08-19T08:14:51;6.17;;;5.07;;
1625;SDS011;806;48.770;9.156;2022-08-19T08:17:21;7.33;;;6.07;;
1625;SDS011;806;48.770;9.156;2022-08-19T08:19:49;7.60;;;6.57;;
1625;SDS011;806;48.770;9.156;2022-08-19T08:22:17;7.03;;;5.27;;
1625;SDS011;806;48.770;9.156;2022-08-19T08:25:03;10.50;;;5.83;;
1625;SDS011;806;48.770;9.156;2022-08-19T08:27:35;8.40;;;5.87;;
1625;SDS011;806;48.770;9.156;2022-08-19T08:30:05;8.57;;;7.10;;
1625;SDS011;806;48.770;9.156;2022-08-19T08:32:35;6.90;;;6.10;;
1625;SDS011;806;48.770;9.156;2022-08-19T08:35:03;8.43;;;7.40;;
1625;SDS011;806;48.770;9.156;2022-08-19T08:37:30;7.17;;;6.20;;
1625;SDS011;806;48.770;9.156;2022-08-19T08:39:57;9.73;;;6.50;;
1625;SDS011;806;48.770;9.156;2022-08-19T08:42:27;5.43;;;4.77;;
1625;SDS011;806;48.770;9.156;2022-08-19T08:45:00;6.63;;;5.93;;
1625;SDS011;806;48.770;9.156;2022-08-19T08:47:31;7.73;;;6.23;;
1625;SDS011;806;48.770;9.156;2022-08-19T08:50:03;7.83;;;7.03;;
1625;SDS011;806;48.770;9.156;2022-08-19T08:52:33;7.73;;;6.93;;
1625;SDS011;806;48.770;9.156;2022-08-19T08:55:03;8.40;;;7.60;;
1625;SDS011;806;48.770;9.156;2022-08-19T08:57:36;5.67;;;5.17;;
1625;SDS011;806;48.770;9.156;2022-08-19T09:00:08;9.07;;;6.17;;
1625;SDS011;806;48.770;9.156;2022-08-19T09:02:37;7.40;;;6.30;;
1625;SDS011;806;48.770;9.156;2022-08-19T09:05:06;6.30;;;5.63;;
1625;SDS011;806;48.770;9.156;2022-08-19T09:07:39;12.80;;;7.70;;
1625;SDS011;806;48.770;9.156;2022-08-19T09:10:15;6.33;;;5.60;;
1625;SDS011;806;48.770;9.156;2022-08-19T09:12:52;6.03;;;5.43;;
1625;SDS011;806;48.770;9.156;2022-08-19T09:15:27;8.77;;;7.10;;
1625;SDS011;806;48.770;9.156;2022-08-19T09:17:59;7.83;;;7.03;;
1625;SDS011;806;48.770;9.156;2022-08-19T09:20:28;6.63;;;6.10;;
1625;SDS011;806;48.770;9.156;2022-08-19T09:22:56;6.20;;;5.27;;
1625;SDS011;806;48.770;9.156;2022-08-19T09:25:23;6.80;;;5.23;;
1625;SDS011;806;48.770;9.156;2022-08-19T09:27:52;7.13;;;6.30;;
1625;SDS011;806;48.770;9.156;2022-08-19T09:30:22;5.77;;;5.27;;
1625;SDS011;806;48.770;9.156;2022-08-19T09:32:51;7.97;;;5.20;;
1625;SDS011;806;48.770;9.156;2022-08-19T09:35:22;6.93;;;6.23;;
1625;SDS011;806;48.770;9.156;2022-08-19T09:37:51;5.10;;;4.00;;
1625;SDS011;806;48.770;9.156;2022-08-19T09:40:19;6.57;;;6.00;;
1625;SDS011;806;48.770;9.156;2022-08-19T09:42:46;7.50;;;5.53;;
1625;SDS011;806;48.770;9.156;2022-08-19T09:45:15;5.50;;;4.87;;
1625;SDS011;806;48.770;9.156;2022-08-19T09:47:46;6.37;;;5.53;;
1625;SDS011;806;48.770;9.156;2022-08-19T09:50:14;11.40;;;6.30;;
1625;SDS011;806;48.770;9.156;2022-08-19T09:52:41;7.77;;;5.60;;
1625;SDS011;806;48.770;9.156;2022-08-19T09:55:09;5.80;;;5.30;;
1625;SDS011;806;48.770;9.156;2022-08-19T09:57:37;4.77;;;4.37;;
1625;SDS011;806;48.770;9.156;2022-08-19T10:00:05;5.50;;;4.87;;
1625;SDS011;806;48.770;9.156;2022-08-19T10:02:35;5.97;;;4.30;;
1625;SDS011;806;48.770;9.156;2022-08-19T10:05:02;4.50;;;4.13;;
1625;SDS011;806;48.770;9.156;2022-08-19T10:07:47;5.00;;;2.80;;
1625;SDS011;806;48.770;9.156;2022-08-19T10:10:15;5.43;;;3.83;;
1625;SDS011;806;48.770;9.156;2022-08-19T10:12:42;6.43;;;4.10;;
1625;SDS011;806;48.770;9.156;2022-08-19T10:15:12;6.60;;;4.80;;
1625;SDS011;806;48.770;9.156;2022-08-19T10:17:41;3.77;;;3.47;;
1625;SDS011;806;48.770;9.156;2022-08-19T10:20:08;7.20;;;4.67;;
1625;SDS011;806;48.770;9.156;2022-08-19T10:22:35;4.77;;;4.27;;
1625;SDS011;806;48.770;9.156;2022-08-19T10:25:03;3.37;;;3.07;;
1625;SDS011;806;48.770;9.156;2022-08-19T10:27:34;5.00;;;3.63;;
1625;SDS011;806;48.770;9.156;2022-08-19T10:30:02;4.07;;;3.40;;
1625;SDS011;806;48.770;9.156;2022-08-19T10:32:30;3.53;;;3.13;;
1625;SDS011;806;48.770;9.156;2022-08-19T10:34:58;5.40;;;3.60;;
1625;SDS011;806;48.770;9.156;2022-08-19T10:37:25;7.50;;;6.00;;
1625;SDS011;806;48.770;9.156;2022-08-19T10:39:52;4.50;;;3.53;;
1625;SDS011;806;48.770;9.156;2022-08-19T10:42:19;3.27;;;2.70;;
1625;SDS011;806;48.770;9.156;2022-08-19T10:44:46;3.60;;;3.30;;
1625;SDS011;806;48.770;9.156;2022-08-19T10:47:13;4.73;;;4.33;;
1625;SDS011;806;48.770;9.156;2022-08-19T10:49:41;5.20;;;3.43;;
1625;SDS011;806;48.770;9.156;2022-08-19T10:52:26;4.93;;;4.00;;
1625;SDS011;806;48.770;9.156;2022-08-19T10:54:59;3.50;;;3.20;;
1625;SDS011;806;48.770;9.156;2022-08-19T10:57:44;3.20;;;2.20;;
1625;SDS011;806;48.770;9.156;2022-08-19T11:00:11;3.53;;;3.27;;
1625;SDS011;806;48.770;9.156;2022-08-19T11:02:39;3.50;;;3.20;;
1625;SDS011;806;48.770;9.156;2022-08-19T11:05:07;3.60;;;2.27;;
1625;SDS011;806;48.770;9.156;2022-08-19T11:07:37;4.03;;;2.60;;
1625;SDS011;806;48.770;9.156;2022-08-19T11:10:05;5.87;;;2.50;;
1625;SDS011;806;48.770;9.156;2022-08-19T11:12:36;3.50;;;2.63;;
1625;SDS011;806;48.770;9.156;2022-08-19T11:15:04;3.17;;;2.87;;
1625;SDS011;806;48.770;9.156;2022-08-19T11:17:32;2.83;;;1.80;;
1625;SDS011;806;48.770;9.156;2022-08-19T11:20:05;3.37;;;3.07;;
1625;SDS011;806;48.770;9.156;2022-08-19T11:22:33;3.03;;;2.60;;
1625;SDS011;806;48.770;9.156;2022-08-19T11:25:02;3.30;;;2.70;;
1625;SDS011;806;48.770;9.156;2022-08-19T11:27:30;4.23;;;2.20;;
1625;SDS011;806;48.770;9.156;2022-08-19T11:29:57;3.30;;;3.10;;
1625;SDS011;806;48.770;9.156;2022-08-19T11:32:24;2.63;;;2.40;;
1625;SDS011;806;48.770;9.156;2022-08-19T11:34:51;1.97;;;1.77;;
1625;SDS011;806;48.770;9.156;2022-08-19T11:37:19;3.20;;;3.00;;
1625;SDS011;806;48.770;9.156;2022-08-19T11:39:46;2.43;;;2.23;;
1625;SDS011;806;48.770;9.156;2022-08-19T11:42:14;3.13;;;2.83;;
1625;SDS011;806;48.770;9.156;2022-08-19T11:45:01;3.33;;;2.10;;
1625;SDS011;806;48.770;9.156;2022-08-19T11:47:29;2.33;;;2.13;;
1625;SDS011;806;48.770;9.156;2022-08-19T11:49:56;2.60;;;1.77;;
1625;SDS011;806;48.770;9.156;2022-08-19T11:52:23;2.00;;;1.80;;
1625;SDS011;806;48.770;9.156;2022-08-19T11:54:50;2.47;;;2.27;;
1625;SDS011;806;48.770;9.156;2022-08-19T11:57:18;3.90;;;2.10;;
1625;SDS011;806;48.770;9.156;2022-08-19T11:59:48;1.93;;;1.73;;
1625;SDS011;806;48.770;9.156;2022-08-19T12:02:16;3.07;;;1.83;;
1625;SDS011;806;48.770;9.156;2022-08-19T12:04:44;2.83;;;2.10;;
1625;SDS011;806;48.770;9.156;2022-08-19T12:07:11;2.47;;;2.27;;
1625;SDS011;806;48.770;9.156;2022-08-19T12:09:38;3.87;;;1.87;;
1625;SDS011;806;48.770;9.156;2022-08-19T12:12:07;2.80;;;2.60;;
1625;SDS011;806;48.770;9.156;2022-08-19T12:14:39;3.87;;;3.57;;
1625;SDS011;806;48.770;9.156;2022-08-19T12:17:05;4.90;;;2.50;;
1625;SDS011;806;48.770;9.156;2022-08-19T12:19:35;2.23;;;1.80;;
1625;SDS011;806;48.770;9.156;2022-08-19T12:22:02;2.00;;;1.77;;
1625;SDS011;806;48.770;9.156;2022-08-19T12:24:31;3.13;;;1.93;;
1625;SDS011;806;48.770;9.156;2022-08-19T12:26:58;2.30;;;2.10;;
1625;SDS011;806;48.770;9.156;2022-08-19T12:29:26;2.47;;;2.27;;
1625;SDS011;806;48.770;9.156;2022-08-19T12:31:56;1.93;;;1.60;;
1625;SDS011;806;48.770;9.156;2022-08-19T12:34:26;2.87;;;2.50;;
1625;SDS011;806;48.770;9.156;2022-08-19T12:36:55;3.63;;;2.43;;
1625;SDS011;806;48.770;9.156;2022-08-19T12:39:23;2.53;;;2.33;;
1625;SDS011;806;48.770;9.156;2022-08-19T12:41:50;2.57;;;2.10;;
1625;SDS011;806;48.770;9.156;2022-08-19T12:44:18;2.90;;;2.60;;
1625;SDS011;806;48.770;9.156;2022-08-19T12:46:46;2.40;;;2.20;;
1625;SDS011;806;48.770;9.156;2022-08-19T12:49:15;3.00;;;2.67;;
1625;SDS011;806;48.770;9.156;2022-08-19T12:51:42;5.30;;;2.73;;
1625;SDS011;806;48.770;9.156;2022-08-19T12:54:09;3.80;;;3.50;;
1625;SDS011;806;48.770;9.156;2022-08-19T12:56:36;3.80;;;3.30;;
1625;SDS011;806;48.770;9.156;2022-08-19T12:59:03;3.63;;;3.23;;
1625;SDS011;806;48.770;9.156;2022-08-19T13:01:32;3.10;;;2.80;;
1625;SDS011;806;48.770;9.156;2022-08-19T13:03:59;3.47;;;3.17;;
1625;SDS011;806;48.770;9.156;2022-08-19T13:06:28;3.33;;;3.10;;
1625;SDS011;806;48.770;9.156;2022-08-19T13:08:55;3.33;;;3.03;;
1625;SDS011;806;48.770;9.156;2022-08-19T13:11:23;4.10;;;3.70;;
1625;SDS011;806;48.770;9.156;2022-08-19T13:13:50;3.73;;;2.73;;
1625;SDS011;806;48.770;9.156;2022-08-19T13:16:20;3.13;;;2.33;;
1625;SDS011;806;48.770;9.156;2022-08-19T13:18:48;5.20;;;2.67;;
1625;SDS011;806;48.770;9.156;2022-08-19T13:21:16;3.50;;;3.10;;
1625;SDS011;806;48.770;9.156;2022-08-19T13:23:46;2.63;;;2.40;;
1625;SDS011;806;48.770;9.156;2022-08-19T13:26:13;3.20;;;3.00;;
1625;SDS011;806;48.770;9.156;2022-08-19T13:28:42;5.10;;;4.30;;
1625;SDS011;806;48.770;9.156;2022-08-19T13:31:28;5.53;;;5.00;;
1625;SDS011;806;48.770;9.156;2022-08-19T13:34:14;5.83;;;5.27;;
1625;SDS011;806;48.770;9.156;2022-08-19T13:36:42;6.00;;;5.47;;
1625;SDS011;806;48.770;9.156;2022-08-19T13:39:11;6.47;;;5.87;;
1625;SDS011;806;48.770;9.156;2022-08-19T13:41:43;8.00;;;7.13;;
1625;SDS011;806;48.770;9.156;2022-08-19T13:44:13;8.27;;;6.60;;
1625;SDS011;806;48.770;9.156;2022-08-19T13:46:43;10.30;;;8.60;;
1625;SDS011;806;48.770;9.156;2022-08-19T13:49:10;16.03;;;8.43;;
1625;SDS011;806;48.770;9.156;2022-08-19T13:51:40;9.87;;;8.67;;
1625;SDS011;806;48.770;9.156;2022-08-19T13:54:07;7.97;;;7.17;;
1625;SDS011;806;48.770;9.156;2022-08-19T13:56:39;9.60;;;7.60;;
1625;SDS011;806;48.770;9.156;2022-08-19T13:59:07;9.93;;;8.27;;
1625;SDS011;806;48.770;9.156;2022-08-19T14:01:34;9.27;;;8.23;;
1625;SDS011;806;48.770;9.156;2022-08-19T14:04:01;9.47;;;7.27;;
1625;SDS011;806;48.770;9.156;2022-08-19T14:06:28;11.70;;;9.13;;
1625;SDS011;806;48.770;9.156;2022-08-19T14:08:58;11.47;;;9.37;;
1625;SDS011;806;48.770;9.156;2022-08-19T14:11:27;11.30;;;9.93;;
1625;SDS011;806;48.770;9.156;2022-08-19T14:13:55;14.30;;;10.57;;
1625;SDS011;806;48.770;9.156;2022-08-19T14:16:23;12.07;;;9.90;;
1625;SDS011;806;48.770;9.156;2022-08-19T14:18:55;11.10;;;8.10;;
1625;SDS011;806;48.770;9.156;2022-08-19T14:21:22;11.47;;;9.77;;
1625;SDS011;806;48.770;9.156;2022-08-19T14:23:52;9.67;;;8.03;;
1625;SDS011;806;48.770;9.156;2022-08-19T14:26:19;8.97;;;8.07;;
1625;SDS011;806;48.770;9.156;2022-08-19T14:28:47;10.67;;;9.63;;
1625;SDS011;806;48.770;9.156;2022-08-19T14:31:16;13.23;;;10.87;;
1625;SDS011;806;48.770;9.156;2022-08-19T14:33:45;10.60;;;9.30;;
1625;SDS011;806;48.770;9.156;2022-08-19T14:36:12;9.03;;;8.13;;
1625;SDS011;806;48.770;9.156;2022-08-19T14:38:41;8.00;;;7.20;;
1625;SDS011;806;48.770;9.156;2022-08-19T14:41:09;8.40;;;7.00;;
1625;SDS011;806;48.770;9.156;2022-08-19T14:43:39;10.43;;;6.83;;
1625;SDS011;806;48.770;9.156;2022-08-19T14:46:06;8.63;;;7.60;;
1625;SDS011;806;48.770;9.156;2022-08-19T14:48:36;9.40;;;8.00;;
1625;SDS011;806;48.770;9.156;2022-08-19T14:51:04;10.63;;;8.00;;
1625;SDS011;806;48.770;9.156;2022-08-19T14:53:31;9.70;;;7.80;;
1625;SDS011;806;48.770;9.156;2022-08-19T14:55:59;10.30;;;8.00;;
1625;SDS011;806;48.770;9.156;2022-08-19T14:58:26;8.20;;;7.47;;
1625;SDS011;806;48.770;9.156;2022-08-19T15:00:53;9.67;;;7.53;;
1625;SDS011;806;48.770;9.156;2022-08-19T15:03:20;7.57;;;6.30;;
1625;SDS011;806;48.770;9.156;2022-08-19T15:05:49;6.43;;;5.87;;
1625;SDS011;806;48.770;9.156;2022-08-19T15:08:16;6.60;;;6.00;;
1625;SDS011;806;48.770;9.156;2022-08-19T15:10:42;7.20;;;6.23;;
1625;SDS011;806;48.770;9.156;2022-08-19T15:13:10;9.03;;;7.20;;
1625;SDS011;806;48.770;9.156;2022-08-19T15:15:37;6.33;;;5.73;;
1625;SDS011;806;48.770;9.156;2022-08-19T15:18:05;8.02;;;7.22;;
1625;SDS011;806;48.770;9.156;2022-08-19T15:20:32;6.95;;;6.25;;
1625;SDS011;806;48.770;9.156;2022-08-19T15:23:03;9.87;;;6.67;;
1625;SDS011;806;48.770;9.156;2022-08-19T15:25:34;8.17;;;6.70;;
1625;SDS011;806;48.770;9.156;2022-08-19T15:28:01;5.30;;;4.60;;
1625;SDS011;806;48.770;9.156;2022-08-19T15:30:28;5.30;;;4.80;;
1625;SDS011;806;48.770;9.156;2022-08-19T15:32:58;6.57;;;5.93;;
1625;SDS011;806;48.770;9.156;2022-08-19T15:35:25;5.67;;;5.13;;
1625;SDS011;806;48.770;9.156;2022-08-19T15:37:52;4.93;;;4.53;;